createdAt,value
2019-05-03T00:01:36.969Z,18.17
2019-05-03T00:04:05.680Z,15.73
2019-05-03T00:06:34.072Z,16.13
2019-05-03T00:09:02.645Z,13.70
2019-05-03T00:11:32.683Z,14.60
2019-05-03T00:14:01.712Z,16.77
2019-05-03T00:16:34.777Z,11.80
2019-05-03T00:19:03.398Z,12.33
2019-05-03T00:21:32.708Z,12.30
2019-05-03T00:24:02.488Z,11.67
2019-05-03T00:26:31.839Z,12.63
2019-05-03T00:29:02.102Z,11.47
2019-05-03T00:31:31.890Z,11.03
2019-05-03T00:34:05.037Z,12.53
2019-05-03T00:36:46.829Z,10.83
2019-05-03T00:39:16.893Z,9.87
2019-05-03T00:41:45.297Z,14.43
2019-05-03T00:44:13.718Z,10.05
2019-05-03T00:46:42.209Z,12.63
2019-05-03T00:49:12.011Z,10.93
2019-05-03T00:51:42.307Z,11.40
2019-05-03T00:54:12.624Z,12.80
2019-05-03T00:56:42.691Z,11.83
2019-05-03T00:59:12.741Z,15.17
2019-05-03T01:01:42.477Z,13.77
2019-05-03T01:04:11.815Z,12.10
2019-05-03T01:06:42.236Z,13.67
2019-05-03T01:09:18.021Z,11.37
2019-05-03T01:11:46.426Z,12.40
2019-05-03T01:14:14.830Z,15.90
2019-05-03T01:16:43.289Z,13.43
2019-05-03T01:19:12.128Z,14.40
2019-05-03T01:21:42.226Z,11.93
2019-05-03T01:24:12.301Z,13.30
2019-05-03T01:26:42.049Z,12.57
2019-05-03T01:29:12.160Z,16.40
2019-05-03T01:31:42.154Z,13.60
2019-05-03T01:34:12.401Z,14.57
2019-05-03T01:36:42.614Z,14.37
2019-05-03T01:39:12.780Z,14.90
2019-05-03T01:41:41.697Z,14.17
2019-05-03T01:44:10.149Z,15.43
2019-05-03T01:46:38.587Z,13.43
2019-05-03T01:49:08.623Z,15.40
2019-05-03T01:51:53.705Z,15.50
2019-05-03T01:54:22.845Z,15.13
2019-05-03T01:56:58.440Z,15.00
2019-05-03T01:59:22.686Z,17.20
2019-05-03T02:02:02.258Z,17.93
2019-05-03T02:04:38.310Z,15.13
2019-05-03T02:07:06.717Z,15.80
2019-05-03T02:09:35.113Z,15.93
2019-05-03T02:12:04.650Z,17.95
2019-05-03T02:14:33.050Z,15.80
2019-05-03T02:17:01.905Z,17.40
2019-05-03T02:19:32.548Z,16.83
2019-05-03T02:22:00.566Z,17.17
2019-05-03T02:24:29.010Z,20.97
2019-05-03T02:26:57.417Z,17.57
2019-05-03T02:29:25.812Z,17.50
2019-05-03T02:31:54.240Z,17.50
2019-05-03T02:34:23.966Z,17.00
2019-05-03T02:36:53.729Z,20.03
2019-05-03T02:39:23.035Z,17.17
2019-05-03T02:41:58.407Z,17.77
2019-05-03T02:44:22.685Z,17.37
2019-05-03T02:46:56.223Z,16.20
2019-05-03T02:49:29.024Z,17.25
2019-05-03T02:51:57.453Z,17.67
2019-05-03T02:54:26.858Z,16.30
2019-05-03T02:56:56.093Z,18.33
2019-05-03T02:59:26.388Z,19.50
2019-05-03T03:01:55.931Z,19.77
2019-05-03T03:04:26.285Z,18.95
2019-05-03T03:06:57.733Z,18.40
2019-05-03T03:09:27.975Z,18.62
2019-05-03T03:11:58.595Z,18.97
2019-05-03T03:14:29.940Z,20.20
2019-05-03T03:17:01.075Z,22.33
2019-05-03T03:19:32.214Z,23.33
2019-05-03T03:22:06.011Z,19.97
2019-05-03T03:24:36.686Z,21.00
2019-05-03T03:27:06.604Z,19.50
2019-05-03T03:29:36.022Z,19.97
2019-05-03T03:32:19.738Z,18.63
2019-05-03T03:35:03.205Z,20.50
2019-05-03T03:37:28.235Z,20.70
2019-05-03T03:39:56.810Z,19.17
2019-05-03T03:42:25.325Z,22.45
2019-05-03T03:44:56.334Z,20.33
2019-05-03T03:47:27.535Z,19.47
2019-05-03T03:49:58.094Z,21.90
2019-05-03T03:52:29.787Z,21.27
2019-05-03T03:55:00.521Z,22.23
2019-05-03T03:57:29.785Z,20.67
2019-05-03T03:59:58.659Z,19.93
2019-05-03T04:02:27.231Z,20.23
2019-05-03T04:04:56.343Z,20.47
2019-05-03T04:07:26.143Z,19.43
2019-05-03T04:09:56.289Z,20.27
2019-05-03T04:12:26.473Z,20.33
2019-05-03T04:14:56.850Z,20.20
2019-05-03T04:17:29.674Z,22.00
2019-05-03T04:19:59.048Z,21.33
2019-05-03T04:22:27.522Z,19.90
2019-05-03T04:24:55.984Z,24.83
2019-05-03T04:27:27.636Z,20.57
2019-05-03T04:29:55.851Z,19.80
2019-05-03T04:32:28.158Z,21.12
2019-05-03T04:34:56.034Z,21.67
2019-05-03T04:37:26.657Z,21.55
2019-05-03T04:39:56.044Z,20.37
2019-05-03T04:42:25.571Z,21.73
2019-05-03T04:44:56.283Z,21.43
2019-05-03T04:47:26.290Z,20.73
2019-05-03T04:49:55.501Z,21.77
2019-05-03T04:52:25.956Z,22.47
2019-05-03T04:54:56.644Z,19.90
2019-05-03T04:57:40.104Z,19.97
2019-05-03T04:59:56.401Z,21.57
2019-05-03T05:02:26.420Z,23.70
2019-05-03T05:04:55.643Z,23.47
2019-05-03T05:07:26.117Z,20.70
2019-05-03T05:09:56.171Z,20.93
2019-05-03T05:12:25.251Z,21.48
2019-05-03T05:14:56.110Z,19.13
2019-05-03T05:17:31.926Z,20.97
2019-05-03T05:20:07.956Z,18.03
2019-05-03T05:22:36.370Z,20.57
2019-05-03T05:25:07.545Z,20.63
2019-05-03T05:27:49.441Z,16.83
2019-05-03T05:30:16.628Z,21.27
2019-05-03T05:32:45.456Z,17.33
2019-05-03T05:35:14.360Z,17.97
2019-05-03T05:37:44.414Z,19.67
2019-05-03T05:40:13.259Z,15.87
2019-05-03T05:42:41.709Z,16.43
2019-05-03T05:45:10.351Z,16.37
2019-05-03T05:47:52.354Z,18.37
2019-05-03T05:50:31.143Z,20.00
2019-05-03T05:52:59.545Z,17.60
2019-05-03T05:55:29.646Z,19.83
2019-05-03T05:58:08.146Z,19.90
2019-05-03T06:00:37.285Z,17.67
2019-05-03T06:03:05.682Z,18.23
2019-05-03T06:05:35.567Z,19.00
2019-05-03T06:08:22.465Z,17.20
2019-05-03T06:10:55.426Z,19.07
2019-05-03T06:13:40.837Z,20.20
2019-05-03T06:16:10.882Z,18.60
2019-05-03T06:18:54.441Z,17.87
2019-05-03T06:21:41.329Z,16.03
2019-05-03T06:24:14.774Z,16.47
2019-05-03T06:26:45.140Z,18.90
2019-05-03T06:29:14.962Z,16.87
2019-05-03T06:31:55.070Z,16.47
2019-05-03T06:34:25.184Z,15.77
2019-05-03T06:36:55.336Z,16.27
2019-05-03T06:39:24.937Z,12.07
2019-05-03T06:41:55.026Z,13.73
2019-05-03T06:44:27.017Z,15.08
2019-05-03T06:46:55.252Z,12.98
2019-05-03T06:49:25.464Z,14.60
2019-05-03T06:51:54.607Z,15.37
2019-05-03T06:54:26.878Z,13.03
2019-05-03T06:56:55.370Z,13.13
2019-05-03T06:59:37.065Z,13.40
2019-05-03T07:02:14.738Z,15.07
2019-05-03T07:04:44.938Z,14.00
2019-05-03T07:07:18.040Z,12.00
2019-05-03T07:09:48.082Z,11.07
2019-05-03T07:12:16.500Z,12.43
2019-05-03T07:14:45.089Z,13.93
2019-05-03T07:17:14.520Z,13.67
2019-05-03T07:19:43.111Z,10.43
2019-05-03T07:22:11.562Z,8.87
2019-05-03T07:24:40.948Z,9.97
2019-05-03T07:27:09.538Z,12.50
2019-05-03T07:29:39.418Z,10.50
2019-05-03T07:32:07.827Z,9.53
2019-05-03T07:34:36.220Z,8.23
2019-05-03T07:37:05.962Z,8.73
2019-05-03T07:39:35.032Z,8.80
2019-05-03T07:42:05.417Z,8.70
2019-05-03T07:44:34.839Z,12.03
2019-05-03T07:47:04.739Z,8.90
2019-05-03T07:49:35.495Z,10.63
2019-05-03T07:52:05.628Z,8.47
2019-05-03T07:54:34.904Z,7.25
2019-05-03T07:57:06.273Z,10.60
2019-05-03T07:59:36.138Z,7.70
2019-05-03T08:02:05.673Z,9.70
2019-05-03T08:04:35.868Z,6.03
2019-05-03T08:07:04.686Z,8.80
2019-05-03T08:09:35.068Z,6.17
2019-05-03T08:12:05.073Z,7.27
2019-05-03T08:14:35.475Z,7.93
2019-05-03T08:17:05.110Z,6.67
2019-05-03T08:19:35.951Z,5.83
2019-05-03T08:22:04.824Z,5.17
2019-05-03T08:24:34.614Z,10.17
2019-05-03T08:27:05.011Z,7.83
2019-05-03T08:29:35.202Z,6.67
2019-05-03T08:32:21.535Z,8.63
2019-05-03T08:34:51.570Z,5.90
2019-05-03T08:37:21.595Z,7.43
2019-05-03T08:39:50.020Z,5.03
2019-05-03T08:42:22.457Z,4.97
2019-05-03T08:44:50.858Z,6.53
2019-05-03T08:47:19.508Z,6.10
2019-05-03T08:49:47.988Z,5.73
2019-05-03T08:52:16.456Z,9.67
2019-05-03T08:54:45.087Z,5.50
2019-05-03T08:57:14.997Z,8.57
2019-05-03T08:59:44.568Z,6.03
2019-05-03T09:02:14.328Z,5.67
2019-05-03T09:04:45.947Z,8.97
2019-05-03T09:07:14.789Z,8.43
2019-05-03T09:09:55.029Z,5.90
2019-05-03T09:12:25.197Z,6.17
2019-05-03T09:14:54.662Z,6.77
2019-05-03T09:17:24.640Z,8.40
2019-05-03T09:19:54.822Z,10.50
2019-05-03T09:22:25.414Z,6.13
2019-05-03T09:24:54.570Z,10.07
2019-05-03T09:27:24.756Z,7.07
2019-05-03T09:29:55.668Z,6.10
2019-05-03T09:32:25.498Z,8.43
2019-05-03T09:34:55.040Z,8.30
2019-05-03T09:37:24.949Z,8.77
2019-05-03T09:39:55.200Z,10.20
2019-05-03T09:42:24.790Z,7.53
2019-05-03T09:44:55.455Z,7.23
2019-05-03T09:47:25.298Z,7.53
2019-05-03T09:49:55.686Z,10.17
2019-05-03T09:52:24.998Z,8.85
2019-05-03T09:54:55.310Z,6.60
2019-05-03T09:57:24.806Z,9.77
2019-05-03T09:59:59.198Z,6.60
2019-05-03T10:02:24.670Z,6.25
2019-05-03T10:04:55.251Z,6.40
2019-05-03T10:07:25.610Z,5.40
2019-05-03T10:09:55.293Z,7.00
2019-05-03T10:12:25.484Z,4.97
2019-05-03T10:14:54.853Z,7.30
2019-05-03T10:17:35.137Z,7.50
2019-05-03T10:20:09.802Z,6.57
2019-05-03T10:22:38.214Z,7.00
2019-05-03T10:25:07.568Z,6.73
2019-05-03T10:27:45.883Z,5.90
2019-05-03T10:30:18.270Z,8.38
2019-05-03T10:32:51.296Z,4.90
2019-05-03T10:35:19.689Z,5.80
2019-05-03T10:37:48.113Z,11.47
2019-05-03T10:40:19.590Z,5.87
2019-05-03T10:42:47.995Z,8.87
2019-05-03T10:45:16.422Z,6.67
2019-05-03T10:47:45.690Z,10.10
2019-05-03T10:50:15.585Z,9.05
2019-05-03T10:53:02.354Z,5.97
2019-05-03T10:55:30.734Z,5.30
2019-05-03T10:58:18.907Z,5.60
2019-05-03T11:00:53.138Z,7.07
2019-05-03T11:03:19.644Z,8.87
2019-05-03T11:05:48.065Z,5.47
2019-05-03T11:08:16.535Z,6.50
2019-05-03T11:10:44.928Z,6.47
2019-05-03T11:13:15.305Z,5.47
2019-05-03T11:15:44.391Z,7.23
2019-05-03T11:18:14.715Z,7.17
2019-05-03T11:20:45.148Z,7.27
2019-05-03T11:23:14.638Z,4.97
2019-05-03T11:25:45.023Z,8.77
2019-05-03T11:28:14.960Z,8.37
2019-05-03T11:30:53.572Z,9.07
2019-05-03T11:33:18.259Z,13.97
2019-05-03T11:35:51.313Z,5.70
2019-05-03T11:38:21.382Z,5.70
2019-05-03T11:40:49.818Z,8.70
2019-05-03T11:43:19.880Z,6.17
2019-05-03T11:45:48.274Z,5.37
2019-05-03T11:48:16.683Z,5.83
2019-05-03T11:50:45.404Z,6.60
2019-05-03T11:53:14.525Z,3.93
2019-05-03T11:55:46.132Z,9.03
2019-05-03T11:58:20.933Z,7.80
2019-05-03T12:00:51.523Z,6.43
2019-05-03T12:03:25.032Z,3.60
2019-05-03T12:05:55.330Z,9.17
2019-05-03T12:08:25.292Z,5.03
2019-05-03T12:10:58.644Z,4.63
2019-05-03T12:13:30.693Z,4.37
2019-05-03T12:16:00.143Z,5.07
2019-05-03T12:18:29.187Z,3.00
2019-05-03T12:20:59.385Z,4.47
2019-05-03T12:23:31.224Z,4.33
2019-05-03T12:25:58.657Z,4.80
2019-05-03T12:28:27.629Z,9.80
2019-05-03T12:30:56.035Z,2.93
2019-05-03T12:33:26.029Z,6.00
2019-05-03T12:35:55.229Z,6.67
2019-05-03T12:38:25.533Z,3.67
2019-05-03T12:40:54.624Z,4.47
2019-05-03T12:43:25.486Z,5.47
2019-05-03T12:45:53.424Z,4.80
2019-05-03T12:48:21.861Z,5.07
2019-05-03T12:50:50.723Z,8.27
2019-05-03T12:53:21.899Z,4.73
2019-05-03T12:55:49.677Z,4.27
2019-05-03T12:58:18.112Z,5.22
2019-05-03T13:00:50.838Z,5.47
2019-05-03T13:03:20.882Z,5.00
2019-05-03T13:05:49.311Z,6.00
2019-05-03T13:08:31.793Z,4.97
2019-05-03T13:11:00.230Z,4.03
2019-05-03T13:13:28.626Z,5.00
2019-05-03T13:15:57.027Z,5.00
2019-05-03T13:18:25.462Z,6.33
2019-05-03T13:20:55.791Z,4.63
2019-05-03T13:23:25.351Z,6.43
2019-05-03T13:25:53.982Z,5.97
2019-05-03T13:28:22.384Z,4.23
2019-05-03T13:30:50.799Z,5.67
2019-05-03T13:33:19.226Z,5.12
2019-05-03T13:35:47.686Z,4.40
2019-05-03T13:38:16.085Z,6.95
2019-05-03T13:40:45.311Z,20.10
2019-05-03T13:43:15.023Z,7.77
2019-05-03T13:45:45.069Z,6.10
2019-05-03T13:48:16.871Z,13.80
2019-05-03T13:50:44.607Z,9.07
2019-05-03T13:53:16.018Z,5.77
2019-05-03T13:55:44.508Z,6.60
2019-05-03T13:58:14.682Z,7.50
2019-05-03T14:00:45.183Z,4.60
2019-05-03T14:03:15.257Z,5.90
2019-05-03T14:05:44.660Z,7.90
2019-05-03T14:08:15.393Z,6.77
2019-05-03T14:10:45.505Z,7.37
2019-05-03T14:13:13.594Z,7.27
2019-05-03T14:15:42.005Z,6.17
2019-05-03T14:18:10.390Z,5.60
2019-05-03T14:20:46.366Z,8.53
2019-05-03T14:23:15.244Z,5.23
2019-05-03T14:25:44.649Z,4.97
2019-05-03T14:28:14.548Z,5.85
2019-05-03T14:30:45.366Z,7.37
2019-05-03T14:33:13.985Z,9.00
2019-05-03T14:35:42.414Z,8.40
2019-05-03T14:38:10.809Z,6.13
2019-05-03T14:40:39.208Z,6.47
2019-05-03T14:43:07.784Z,7.92
2019-05-03T14:45:36.175Z,5.30
2019-05-03T14:48:06.239Z,9.43
2019-05-03T14:50:35.165Z,7.67
2019-05-03T14:53:05.386Z,9.03
2019-05-03T14:55:41.535Z,9.00
2019-05-03T14:58:28.023Z,7.07
2019-05-03T15:00:58.053Z,6.63
2019-05-03T15:03:28.243Z,10.40
2019-05-03T15:05:58.432Z,7.97
2019-05-03T15:08:26.854Z,8.00
2019-05-03T15:10:55.280Z,5.67
2019-05-03T15:13:25.047Z,6.23
2019-05-03T15:15:54.664Z,7.87
2019-05-03T15:18:25.378Z,6.83
2019-05-03T15:20:55.000Z,5.87
2019-05-03T15:23:25.458Z,8.07
2019-05-03T15:25:54.552Z,6.65
2019-05-03T15:28:25.077Z,7.57
2019-05-03T15:30:55.302Z,6.80
2019-05-03T15:33:23.548Z,6.40
2019-05-03T15:35:52.022Z,7.43
2019-05-03T15:38:20.525Z,6.62
2019-05-03T15:40:49.122Z,8.33
2019-05-03T15:43:19.263Z,7.10
2019-05-03T15:45:55.310Z,7.43
2019-05-03T15:48:28.283Z,8.73
2019-05-03T15:50:56.680Z,5.77
2019-05-03T15:53:25.085Z,7.80
2019-05-03T15:55:55.057Z,11.27
2019-05-03T15:58:24.861Z,6.73
2019-05-03T16:00:55.177Z,7.20
2019-05-03T16:03:25.225Z,6.50
2019-05-03T16:05:55.455Z,8.90
2019-05-03T16:08:24.752Z,10.13
2019-05-03T16:10:54.922Z,6.43
2019-05-03T16:13:25.193Z,9.00
2019-05-03T16:15:55.239Z,9.43
2019-05-03T16:18:24.532Z,8.00
2019-05-03T16:20:54.649Z,10.80
2019-05-03T16:23:25.053Z,9.87
2019-05-03T16:25:54.442Z,5.90
2019-05-03T16:28:44.685Z,8.03
2019-05-03T16:31:14.577Z,8.33
2019-05-03T16:33:42.978Z,11.73
2019-05-03T16:36:11.382Z,7.33
2019-05-03T16:38:39.881Z,8.37
2019-05-03T16:41:08.350Z,8.40
2019-05-03T16:43:36.787Z,8.97
2019-05-03T16:46:05.597Z,12.53
2019-05-03T16:48:35.360Z,8.70
2019-05-03T16:51:04.785Z,9.80
2019-05-03T16:53:34.876Z,11.17
2019-05-03T16:56:03.605Z,8.53
2019-05-03T16:58:32.058Z,11.10
2019-05-03T17:01:00.463Z,14.00
2019-05-03T17:03:38.444Z,11.10
2019-05-03T17:06:19.178Z,15.50
2019-05-03T17:08:52.117Z,11.10
2019-05-03T17:11:24.468Z,9.40
2019-05-03T17:13:52.911Z,10.60
2019-05-03T17:16:21.392Z,11.43
2019-05-03T17:18:49.806Z,11.00
2019-05-03T17:21:18.333Z,11.40
2019-05-03T17:23:46.738Z,9.50
2019-05-03T17:26:17.645Z,8.13
2019-05-03T17:28:45.330Z,11.17
2019-05-03T17:31:13.747Z,10.53
2019-05-03T17:33:51.442Z,8.70
2019-05-03T17:36:12.326Z,9.10
2019-05-03T17:38:40.737Z,9.30
2019-05-03T17:41:16.645Z,10.27
2019-05-03T17:43:54.485Z,9.43
2019-05-03T17:46:22.950Z,8.63
2019-05-03T17:48:51.391Z,7.30
2019-05-03T17:51:37.770Z,8.67
2019-05-03T17:54:08.156Z,10.97
2019-05-03T17:56:56.557Z,10.83
2019-05-03T17:59:38.824Z,9.23
2019-05-03T18:02:24.583Z,9.30
2019-05-03T18:05:10.831Z,11.00
2019-05-03T18:07:46.795Z,10.53
2019-05-03T18:10:15.532Z,8.30
2019-05-03T18:12:45.355Z,10.30
2019-05-03T18:15:14.788Z,9.70
2019-05-03T18:17:44.476Z,8.77
2019-05-03T18:20:14.934Z,11.93
2019-05-03T18:22:43.260Z,8.43
2019-05-03T18:25:11.694Z,13.03
2019-05-03T18:27:40.111Z,10.50
2019-05-03T18:30:08.651Z,7.97
2019-05-03T18:32:37.465Z,8.63
2019-05-03T18:35:06.804Z,10.48
2019-05-03T18:37:35.215Z,8.27
2019-05-03T18:40:05.394Z,9.03
2019-05-03T18:42:44.786Z,48.27
2019-05-03T18:45:21.502Z,12.73
2019-05-03T18:47:49.966Z,13.07
2019-05-03T18:50:18.637Z,8.75
2019-05-03T18:52:47.041Z,10.50
2019-05-03T18:55:15.489Z,12.33
2019-05-03T18:57:44.752Z,13.73
2019-05-03T19:00:15.363Z,12.90
2019-05-03T19:02:44.489Z,11.77
2019-05-03T19:05:15.178Z,19.77
2019-05-03T19:07:50.702Z,11.97
2019-05-03T19:10:24.775Z,13.55
2019-05-03T19:12:55.299Z,11.07
2019-05-03T19:15:25.115Z,13.33
2019-05-03T19:17:57.901Z,11.17
2019-05-03T19:20:26.356Z,10.03
2019-05-03T19:22:54.810Z,15.00
2019-05-03T19:25:25.358Z,12.27
2019-05-03T19:27:54.542Z,12.17
2019-05-03T19:30:24.452Z,13.70
2019-05-03T19:32:55.066Z,14.30
2019-05-03T19:35:24.991Z,14.03
2019-05-03T19:37:55.328Z,10.90
2019-05-03T19:40:25.476Z,11.50
2019-05-03T19:42:55.216Z,11.97
2019-05-03T19:45:24.859Z,12.83
2019-05-03T19:47:55.152Z,12.43
2019-05-03T19:50:26.956Z,10.40
2019-05-03T19:53:01.490Z,10.20
2019-05-03T19:55:29.918Z,13.37
2019-05-03T19:57:58.435Z,12.40
2019-05-03T20:00:28.469Z,12.90
2019-05-03T20:03:00.930Z,12.33
2019-05-03T20:05:36.947Z,11.47
2019-05-03T20:08:09.974Z,15.57
2019-05-03T20:10:38.369Z,12.87
2019-05-03T20:13:06.806Z,12.07
2019-05-03T20:15:35.282Z,17.73
2019-05-03T20:18:04.913Z,14.45
2019-05-03T20:20:33.498Z,12.07
2019-05-03T20:23:01.889Z,14.60
2019-05-03T20:25:30.321Z,15.07
2019-05-03T20:27:58.750Z,19.23
2019-05-03T20:30:27.144Z,15.37
2019-05-03T20:32:55.688Z,15.03
2019-05-03T20:35:25.170Z,13.53
2019-05-03T20:37:55.341Z,13.20
2019-05-03T20:40:25.618Z,10.20
2019-05-03T20:43:04.948Z,10.83
2019-05-03T20:45:38.005Z,10.67
2019-05-03T20:48:08.053Z,12.00
2019-05-03T20:50:36.485Z,16.23
2019-05-03T20:53:05.364Z,12.27
2019-05-03T20:55:34.738Z,11.17
2019-05-03T20:58:03.278Z,13.83
2019-05-03T21:00:31.742Z,11.53
2019-05-03T21:03:00.188Z,11.53
2019-05-03T21:05:32.878Z,15.97
2019-05-03T21:07:58.718Z,14.13
2019-05-03T21:10:27.156Z,11.37
2019-05-03T21:12:55.568Z,12.03
2019-05-03T21:15:25.610Z,12.10
2019-05-03T21:17:58.387Z,14.87
2019-05-03T21:20:37.555Z,12.07
2019-05-03T21:23:25.058Z,11.73
2019-05-03T21:26:13.507Z,12.37
2019-05-03T21:28:39.590Z,13.33
2019-05-03T21:31:07.997Z,12.43
2019-05-03T21:33:36.551Z,12.93
2019-05-03T21:36:05.358Z,14.83
2019-05-03T21:38:35.568Z,14.67
2019-05-03T21:41:05.268Z,14.47
2019-05-03T21:43:34.846Z,12.50
2019-05-03T21:46:08.058Z,13.73
2019-05-03T21:48:55.370Z,13.37
2019-05-03T21:51:24.496Z,15.30
2019-05-03T21:53:53.148Z,14.57
2019-05-03T21:56:21.622Z,14.27
2019-05-03T21:58:50.063Z,14.50
2019-05-03T22:01:18.473Z,15.70
2019-05-03T22:03:46.932Z,15.05
2019-05-03T22:06:17.128Z,14.60
2019-05-03T22:08:45.669Z,16.13
2019-05-03T22:11:14.854Z,14.20
2019-05-03T22:13:45.482Z,14.47
2019-05-03T22:16:15.845Z,16.37
2019-05-03T22:18:45.493Z,15.20
2019-05-03T22:21:30.693Z,15.87
2019-05-03T22:24:18.789Z,16.40
2019-05-03T22:26:54.600Z,15.53
2019-05-03T22:29:25.245Z,14.73
2019-05-03T22:31:54.819Z,14.73
2019-05-03T22:34:25.489Z,14.50
2019-05-03T22:36:54.848Z,18.37
2019-05-03T22:39:24.996Z,14.77
2019-05-03T22:41:53.688Z,14.93
2019-05-03T22:44:22.125Z,15.10
2019-05-03T22:46:51.565Z,17.17
2019-05-03T22:49:20.046Z,15.00
2019-05-03T22:51:48.771Z,17.30
2019-05-03T22:54:17.297Z,15.77
2019-05-03T22:56:45.705Z,14.73
2019-05-03T22:59:14.890Z,15.33
2019-05-03T23:01:45.531Z,14.87
2019-05-03T23:04:14.714Z,17.05
2019-05-03T23:06:46.719Z,16.03
2019-05-03T23:09:15.706Z,16.27
2019-05-03T23:11:44.710Z,18.77
2019-05-03T23:14:15.104Z,15.97
2019-05-03T23:16:44.841Z,16.20
2019-05-03T23:19:14.900Z,14.50
2019-05-03T23:21:48.162Z,17.03
2019-05-03T23:24:16.578Z,15.85
2019-05-03T23:26:45.272Z,14.90
2019-05-03T23:29:13.804Z,16.43
2019-05-03T23:31:44.713Z,15.67
2019-05-03T23:34:12.771Z,15.53
2019-05-03T23:36:41.169Z,16.23
2019-05-03T23:39:09.561Z,16.17
2019-05-03T23:41:38.039Z,16.97
2019-05-03T23:44:06.478Z,18.03
2019-05-03T23:46:45.522Z,20.37
2019-05-03T23:49:14.563Z,18.30
2019-05-03T23:51:44.657Z,17.43
2019-05-03T23:54:14.843Z,18.07
2019-05-03T23:56:45.392Z,18.63
2019-05-03T23:59:14.887Z,19.57
